sensor_id;sensor_type;location;lat;lon;timestamp;temperature;humidity
20672;DHT22;10495;50.922;4.760;2023-05-10T00:01:21;15.40;91.40
20672;DHT22;10495;50.922;4.760;2023-05-10T00:03:47;15.40;91.40
20672;DHT22;10495;50.922;4.760;2023-05-10T00:06:13;15.30;91.60
20672;DHT22;10495;50.922;4.760;2023-05-10T00:08:38;15.20;91.60
20672;DHT22;10495;50.922;4.760;2023-05-10T00:11:04;15.20;91.70
20672;DHT22;10495;50.922;4.760;2023-05-10T00:13:31;15.20;91.60
20672;DHT22;10495;50.922;4.760;2023-05-10T00:15:57;15.10;91.70
20672;DHT22;10495;50.922;4.760;2023-05-10T00:18:22;15.20;91.80
20672;DHT22;10495;50.922;4.760;2023-05-10T00:20:48;15.20;91.70
20672;DHT22;10495;50.922;4.760;2023-05-10T00:23:14;15.10;91.80
20672;DHT22;10495;50.922;4.760;2023-05-10T00:25:40;15.10;91.90
20672;DHT22;10495;50.922;4.760;2023-05-10T00:28:05;15.30;91.90
20672;DHT22;10495;50.922;4.760;2023-05-10T00:30:31;15.40;91.70
20672;DHT22;10495;50.922;4.760;2023-05-10T00:32:57;15.20;91.70
20672;DHT22;10495;50.922;4.760;2023-05-10T00:35:22;15.30;91.80
20672;DHT22;10495;50.922;4.760;2023-05-10T00:37:48;15.30;91.80
20672;DHT22;10495;50.922;4.760;2023-05-10T00:40:14;15.30;91.90
20672;DHT22;10495;50.922;4.760;2023-05-10T00:42:40;15.40;91.80
20672;DHT22;10495;50.922;4.760;2023-05-10T00:45:06;15.40;91.70
20672;DHT22;10495;50.922;4.760;2023-05-10T00:47:32;15.30;91.80
20672;DHT22;10495;50.922;4.760;2023-05-10T00:49:58;15.20;91.90
20672;DHT22;10495;50.922;4.760;2023-05-10T00:52:26;15.30;91.80
20672;DHT22;10495;50.922;4.760;2023-05-10T00:54:52;15.40;91.60
20672;DHT22;10495;50.922;4.760;2023-05-10T00:57:19;15.30;91.60
20672;DHT22;10495;50.922;4.760;2023-05-10T00:59:44;15.10;91.80
20672;DHT22;10495;50.922;4.760;2023-05-10T01:02:11;15.00;92.00
20672;DHT22;10495;50.922;4.760;2023-05-10T01:04:37;15.10;92.00
20672;DHT22;10495;50.922;4.760;2023-05-10T01:07:03;15.10;92.00
20672;DHT22;10495;50.922;4.760;2023-05-10T01:09:29;15.20;91.80
20672;DHT22;10495;50.922;4.760;2023-05-10T01:11:55;15.20;91.80
20672;DHT22;10495;50.922;4.760;2023-05-10T01:14:21;15.10;91.90
20672;DHT22;10495;50.922;4.760;2023-05-10T01:16:49;15.10;92.00
20672;DHT22;10495;50.922;4.760;2023-05-10T01:19:26;15.20;91.60
20672;DHT22;10495;50.922;4.760;2023-05-10T01:33:07;15.10;91.90
20672;DHT22;10495;50.922;4.760;2023-05-10T01:41:36;15.30;91.70
20672;DHT22;10495;50.922;4.760;2023-05-10T01:45:02;15.30;91.50
20672;DHT22;10495;50.922;4.760;2023-05-10T01:47:08;15.30;91.80
20672;DHT22;10495;50.922;4.760;2023-05-10T01:49:42;15.20;91.80
20672;DHT22;10495;50.922;4.760;2023-05-10T01:52:12;15.30;91.90
20672;DHT22;10495;50.922;4.760;2023-05-10T01:54:42;15.20;91.70
20672;DHT22;10495;50.922;4.760;2023-05-10T01:57:10;15.30;91.70
20672;DHT22;10495;50.922;4.760;2023-05-10T01:59:40;15.20;91.80
20672;DHT22;10495;50.922;4.760;2023-05-10T02:02:08;15.20;91.50
20672;DHT22;10495;50.922;4.760;2023-05-10T02:04:39;15.10;91.80
20672;DHT22;10495;50.922;4.760;2023-05-10T02:07:06;15.10;91.80
20672;DHT22;10495;50.922;4.760;2023-05-10T02:09:33;15.20;91.80
20672;DHT22;10495;50.922;4.760;2023-05-10T02:12:01;15.30;91.60
20672;DHT22;10495;50.922;4.760;2023-05-10T02:14:30;15.10;91.70
20672;DHT22;10495;50.922;4.760;2023-05-10T02:16:58;15.10;91.90
20672;DHT22;10495;50.922;4.760;2023-05-10T02:19:25;15.10;91.80
20672;DHT22;10495;50.922;4.760;2023-05-10T02:21:51;15.20;91.70
20672;DHT22;10495;50.922;4.760;2023-05-10T02:24:18;15.30;91.70
20672;DHT22;10495;50.922;4.760;2023-05-10T02:26:45;15.30;91.60
20672;DHT22;10495;50.922;4.760;2023-05-10T02:29:13;15.30;91.80
20672;DHT22;10495;50.922;4.760;2023-05-10T02:31:40;15.30;91.80
20672;DHT22;10495;50.922;4.760;2023-05-10T02:34:10;15.40;91.70
20672;DHT22;10495;50.922;4.760;2023-05-10T02:36:38;15.30;91.80
20672;DHT22;10495;50.922;4.760;2023-05-10T02:39:04;15.30;91.70
20672;DHT22;10495;50.922;4.760;2023-05-10T02:41:35;15.20;91.80
20672;DHT22;10495;50.922;4.760;2023-05-10T02:44:02;15.20;91.80
20672;DHT22;10495;50.922;4.760;2023-05-10T02:46:30;15.10;91.90
20672;DHT22;10495;50.922;4.760;2023-05-10T02:48:55;15.20;91.80
20672;DHT22;10495;50.922;4.760;2023-05-10T02:51:25;15.20;91.90
20672;DHT22;10495;50.922;4.760;2023-05-10T02:53:53;15.20;91.80
20672;DHT22;10495;50.922;4.760;2023-05-10T02:56:25;15.30;91.70
20672;DHT22;10495;50.922;4.760;2023-05-10T02:58:54;15.40;91.60
20672;DHT22;10495;50.922;4.760;2023-05-10T03:01:20;15.20;91.70
20672;DHT22;10495;50.922;4.760;2023-05-10T03:03:46;15.20;91.80
20672;DHT22;10495;50.922;4.760;2023-05-10T03:06:11;15.20;91.80
20672;DHT22;10495;50.922;4.760;2023-05-10T03:08:37;15.30;91.60
20672;DHT22;10495;50.922;4.760;2023-05-10T03:11:09;15.30;91.80
20672;DHT22;10495;50.922;4.760;2023-05-10T03:14:07;15.40;91.60
20672;DHT22;10495;50.922;4.760;2023-05-10T03:16:42;15.30;91.60
20672;DHT22;10495;50.922;4.760;2023-05-10T03:22:37;15.30;91.80
20672;DHT22;10495;50.922;4.760;2023-05-10T03:25:06;15.20;91.90
20672;DHT22;10495;50.922;4.760;2023-05-10T03:27:32;15.20;92.00
20672;DHT22;10495;50.922;4.760;2023-05-10T03:29:59;15.20;92.00
20672;DHT22;10495;50.922;4.760;2023-05-10T03:32:26;15.30;92.00
20672;DHT22;10495;50.922;4.760;2023-05-10T03:34:54;15.30;91.90
20672;DHT22;10495;50.922;4.760;2023-05-10T03:37:19;15.30;91.90
20672;DHT22;10495;50.922;4.760;2023-05-10T03:39:45;15.30;91.80
20672;DHT22;10495;50.922;4.760;2023-05-10T03:42:11;15.40;91.60
20672;DHT22;10495;50.922;4.760;2023-05-10T03:44:38;15.20;91.90
20672;DHT22;10495;50.922;4.760;2023-05-10T03:47:04;15.30;91.80
20672;DHT22;10495;50.922;4.760;2023-05-10T03:49:29;15.20;91.80
20672;DHT22;10495;50.922;4.760;2023-05-10T03:51:55;15.30;91.80
20672;DHT22;10495;50.922;4.760;2023-05-10T03:54:21;15.20;91.80
20672;DHT22;10495;50.922;4.760;2023-05-10T03:56:47;15.20;91.90
20672;DHT22;10495;50.922;4.760;2023-05-10T03:59:13;15.20;91.90
20672;DHT22;10495;50.922;4.760;2023-05-10T04:01:39;15.20;91.90
20672;DHT22;10495;50.922;4.760;2023-05-10T04:04:04;15.20;91.80
20672;DHT22;10495;50.922;4.760;2023-05-10T04:06:30;15.20;91.80
20672;DHT22;10495;50.922;4.760;2023-05-10T04:08:56;15.20;91.80
20672;DHT22;10495;50.922;4.760;2023-05-10T04:11:25;15.10;91.80
20672;DHT22;10495;50.922;4.760;2023-05-10T04:13:50;15.10;91.90
20672;DHT22;10495;50.922;4.760;2023-05-10T04:16:16;15.20;91.70
20672;DHT22;10495;50.922;4.760;2023-05-10T04:18:42;15.20;91.60
20672;DHT22;10495;50.922;4.760;2023-05-10T04:21:14;15.40;91.20
20672;DHT22;10495;50.922;4.760;2023-05-10T04:23:40;15.10;91.60
20672;DHT22;10495;50.922;4.760;2023-05-10T04:26:06;15.00;91.80
20672;DHT22;10495;50.922;4.760;2023-05-10T04:28:32;14.90;92.10
20672;DHT22;10495;50.922;4.760;2023-05-10T04:31:04;14.90;92.00
20672;DHT22;10495;50.922;4.760;2023-05-10T04:33:30;14.90;91.90
20672;DHT22;10495;50.922;4.760;2023-05-10T04:35:56;14.80;92.00
20672;DHT22;10495;50.922;4.760;2023-05-10T04:38:22;15.00;91.90
20672;DHT22;10495;50.922;4.760;2023-05-10T04:40:47;14.70;92.00
20672;DHT22;10495;50.922;4.760;2023-05-10T04:43:13;14.80;92.10
20672;DHT22;10495;50.922;4.760;2023-05-10T04:45:38;14.70;92.20
20672;DHT22;10495;50.922;4.760;2023-05-10T04:48:04;14.60;92.40
20672;DHT22;10495;50.922;4.760;2023-05-10T04:50:30;14.70;92.30
20672;DHT22;10495;50.922;4.760;2023-05-10T04:52:57;14.70;92.40
20672;DHT22;10495;50.922;4.760;2023-05-10T04:55:22;14.70;92.30
20672;DHT22;10495;50.922;4.760;2023-05-10T04:57:48;14.70;92.30
20672;DHT22;10495;50.922;4.760;2023-05-10T05:00:14;14.70;92.30
20672;DHT22;10495;50.922;4.760;2023-05-10T05:02:42;14.60;92.30
20672;DHT22;10495;50.922;4.760;2023-05-10T05:05:09;14.70;92.50
20672;DHT22;10495;50.922;4.760;2023-05-10T05:07:35;14.60;92.60
20672;DHT22;10495;50.922;4.760;2023-05-10T05:10:00;14.60;92.50
20672;DHT22;10495;50.922;4.760;2023-05-10T05:12:26;14.70;92.40
20672;DHT22;10495;50.922;4.760;2023-05-10T05:14:51;14.50;92.60
20672;DHT22;10495;50.922;4.760;2023-05-10T05:17:17;14.70;92.40
20672;DHT22;10495;50.922;4.760;2023-05-10T05:19:43;14.60;92.40
20672;DHT22;10495;50.922;4.760;2023-05-10T05:22:08;14.70;92.50
20672;DHT22;10495;50.922;4.760;2023-05-10T05:24:37;14.50;92.70
20672;DHT22;10495;50.922;4.760;2023-05-10T05:27:03;14.50;92.80
20672;DHT22;10495;50.922;4.760;2023-05-10T05:29:29;14.50;92.90
20672;DHT22;10495;50.922;4.760;2023-05-10T05:31:55;14.50;92.90
20672;DHT22;10495;50.922;4.760;2023-05-10T05:34:20;14.60;92.90
20672;DHT22;10495;50.922;4.760;2023-05-10T05:36:47;14.70;92.70
20672;DHT22;10495;50.922;4.760;2023-05-10T05:39:13;14.70;92.90
20672;DHT22;10495;50.922;4.760;2023-05-10T05:41:38;14.90;93.00
20672;DHT22;10495;50.922;4.760;2023-05-10T05:44:04;14.90;92.80
20672;DHT22;10495;50.922;4.760;2023-05-10T05:46:29;14.90;92.70
20672;DHT22;10495;50.922;4.760;2023-05-10T05:48:55;15.00;92.70
20672;DHT22;10495;50.922;4.760;2023-05-10T05:51:21;15.10;92.70
20672;DHT22;10495;50.922;4.760;2023-05-10T05:53:47;15.10;92.70
20672;DHT22;10495;50.922;4.760;2023-05-10T05:56:12;15.10;92.70
20672;DHT22;10495;50.922;4.760;2023-05-10T05:58:38;15.20;92.60
20672;DHT22;10495;50.922;4.760;2023-05-10T06:01:04;15.30;92.70
20672;DHT22;10495;50.922;4.760;2023-05-10T06:03:30;15.40;92.60
20672;DHT22;10495;50.922;4.760;2023-05-10T06:05:55;15.30;92.60
20672;DHT22;10495;50.922;4.760;2023-05-10T06:08:21;15.40;92.50
20672;DHT22;10495;50.922;4.760;2023-05-10T06:10:47;15.50;92.50
20672;DHT22;10495;50.922;4.760;2023-05-10T06:13:13;15.60;92.40
20672;DHT22;10495;50.922;4.760;2023-05-10T06:15:39;15.50;92.40
20672;DHT22;10495;50.922;4.760;2023-05-10T06:18:05;15.50;92.30
20672;DHT22;10495;50.922;4.760;2023-05-10T06:20:31;15.50;92.40
20672;DHT22;10495;50.922;4.760;2023-05-10T06:22:57;15.70;92.30
20672;DHT22;10495;50.922;4.760;2023-05-10T06:25:23;15.70;92.10
20672;DHT22;10495;50.922;4.760;2023-05-10T06:27:49;15.70;92.20
20672;DHT22;10495;50.922;4.760;2023-05-10T06:30:15;15.70;92.20
20672;DHT22;10495;50.922;4.760;2023-05-10T06:32:41;15.60;92.50
20672;DHT22;10495;50.922;4.760;2023-05-10T06:35:07;15.80;92.20
20672;DHT22;10495;50.922;4.760;2023-05-10T06:37:33;15.80;92.10
20672;DHT22;10495;50.922;4.760;2023-05-10T06:39:59;15.90;91.80
20672;DHT22;10495;50.922;4.760;2023-05-10T06:42:26;15.90;91.90
20672;DHT22;10495;50.922;4.760;2023-05-10T06:44:52;15.80;91.90
20672;DHT22;10495;50.922;4.760;2023-05-10T06:47:18;15.80;91.90
20672;DHT22;10495;50.922;4.760;2023-05-10T06:49:44;15.90;92.10
20672;DHT22;10495;50.922;4.760;2023-05-10T06:52:09;15.80;92.00
20672;DHT22;10495;50.922;4.760;2023-05-10T06:54:35;15.90;92.00
20672;DHT22;10495;50.922;4.760;2023-05-10T06:57:00;15.90;91.80
20672;DHT22;10495;50.922;4.760;2023-05-10T06:59:28;15.90;91.60
20672;DHT22;10495;50.922;4.760;2023-05-10T07:01:53;16.00;91.90
20672;DHT22;10495;50.922;4.760;2023-05-10T07:04:19;16.00;92.00
20672;DHT22;10495;50.922;4.760;2023-05-10T07:06:45;16.10;92.00
20672;DHT22;10495;50.922;4.760;2023-05-10T07:09:11;16.20;91.90
20672;DHT22;10495;50.922;4.760;2023-05-10T07:11:38;16.40;91.70
20672;DHT22;10495;50.922;4.760;2023-05-10T07:14:04;16.40;91.60
20672;DHT22;10495;50.922;4.760;2023-05-10T07:16:29;16.40;91.40
20672;DHT22;10495;50.922;4.760;2023-05-10T07:18:55;16.40;91.50
20672;DHT22;10495;50.922;4.760;2023-05-10T07:21:21;16.70;91.30
20672;DHT22;10495;50.922;4.760;2023-05-10T07:23:49;16.80;91.20
20672;DHT22;10495;50.922;4.760;2023-05-10T07:26:15;16.80;91.30
20672;DHT22;10495;50.922;4.760;2023-05-10T07:28:41;16.80;91.40
20672;DHT22;10495;50.922;4.760;2023-05-10T07:31:07;16.90;91.30
20672;DHT22;10495;50.922;4.760;2023-05-10T07:33:33;16.80;90.90
20672;DHT22;10495;50.922;4.760;2023-05-10T07:35:58;16.80;90.90
20672;DHT22;10495;50.922;4.760;2023-05-10T07:38:24;16.90;90.70
20672;DHT22;10495;50.922;4.760;2023-05-10T07:40:49;16.80;90.20
20672;DHT22;10495;50.922;4.760;2023-05-10T07:43:15;16.70;90.10
20672;DHT22;10495;50.922;4.760;2023-05-10T07:45:41;16.70;90.00
20672;DHT22;10495;50.922;4.760;2023-05-10T07:48:07;16.40;89.60
20672;DHT22;10495;50.922;4.760;2023-05-10T07:50:32;16.10;90.10
20672;DHT22;10495;50.922;4.760;2023-05-10T07:52:58;15.90;90.50
20672;DHT22;10495;50.922;4.760;2023-05-10T07:55:24;15.80;90.60
20672;DHT22;10495;50.922;4.760;2023-05-10T07:57:49;16.00;90.20
20672;DHT22;10495;50.922;4.760;2023-05-10T08:00:19;15.90;90.40
20672;DHT22;10495;50.922;4.760;2023-05-10T08:02:46;15.80;90.60
20672;DHT22;10495;50.922;4.760;2023-05-10T08:05:12;15.70;90.60
20672;DHT22;10495;50.922;4.760;2023-05-10T08:07:37;15.80;90.60
20672;DHT22;10495;50.922;4.760;2023-05-10T08:10:04;15.70;90.70
20672;DHT22;10495;50.922;4.760;2023-05-10T08:12:29;15.80;90.60
20672;DHT22;10495;50.922;4.760;2023-05-10T08:14:55;15.80;90.70
20672;DHT22;10495;50.922;4.760;2023-05-10T08:17:21;15.60;90.60
20672;DHT22;10495;50.922;4.760;2023-05-10T08:19:47;15.50;90.70
20672;DHT22;10495;50.922;4.760;2023-05-10T08:22:12;15.60;90.80
20672;DHT22;10495;50.922;4.760;2023-05-10T08:24:38;15.80;90.60
20672;DHT22;10495;50.922;4.760;2023-05-10T08:27:08;15.90;90.50
20672;DHT22;10495;50.922;4.760;2023-05-10T08:29:33;16.00;90.60
20672;DHT22;10495;50.922;4.760;2023-05-10T08:31:59;15.80;90.30
20672;DHT22;10495;50.922;4.760;2023-05-10T08:34:26;15.90;90.50
20672;DHT22;10495;50.922;4.760;2023-05-10T08:36:52;16.00;90.40
20672;DHT22;10495;50.922;4.760;2023-05-10T08:39:18;15.80;90.60
20672;DHT22;10495;50.922;4.760;2023-05-10T08:41:45;15.90;90.70
20672;DHT22;10495;50.922;4.760;2023-05-10T08:44:12;15.90;90.80
20672;DHT22;10495;50.922;4.760;2023-05-10T08:46:41;16.10;90.80
20672;DHT22;10495;50.922;4.760;2023-05-10T08:49:13;16.10;90.70
20672;DHT22;10495;50.922;4.760;2023-05-10T08:51:45;16.00;90.70
20672;DHT22;10495;50.922;4.760;2023-05-10T08:54:12;16.00;90.50
20672;DHT22;10495;50.922;4.760;2023-05-10T08:56:39;16.00;90.40
20672;DHT22;10495;50.922;4.760;2023-05-10T08:59:04;15.90;90.50
20672;DHT22;10495;50.922;4.760;2023-05-10T09:01:31;15.90;90.70
20672;DHT22;10495;50.922;4.760;2023-05-10T09:03:57;15.80;90.60
20672;DHT22;10495;50.922;4.760;2023-05-10T09:06:23;15.70;90.90
20672;DHT22;10495;50.922;4.760;2023-05-10T09:08:49;15.80;90.80
20672;DHT22;10495;50.922;4.760;2023-05-10T09:11:16;15.70;90.80
20672;DHT22;10495;50.922;4.760;2023-05-10T09:13:42;15.70;90.70
20672;DHT22;10495;50.922;4.760;2023-05-10T09:16:09;16.00;90.70
20672;DHT22;10495;50.922;4.760;2023-05-10T09:18:35;15.90;90.70
20672;DHT22;10495;50.922;4.760;2023-05-10T09:21:01;15.80;90.40
20672;DHT22;10495;50.922;4.760;2023-05-10T09:23:27;15.60;90.80
20672;DHT22;10495;50.922;4.760;2023-05-10T09:26:07;15.70;90.80
20672;DHT22;10495;50.922;4.760;2023-05-10T09:28:51;15.70;91.00
20672;DHT22;10495;50.922;4.760;2023-05-10T09:31:17;15.80;91.00
20672;DHT22;10495;50.922;4.760;2023-05-10T09:33:46;15.80;91.10
20672;DHT22;10495;50.922;4.760;2023-05-10T09:36:13;16.00;91.00
20672;DHT22;10495;50.922;4.760;2023-05-10T09:38:52;16.10;90.60
20672;DHT22;10495;50.922;4.760;2023-05-10T09:41:22;16.00;90.40
20672;DHT22;10495;50.922;4.760;2023-05-10T09:43:49;16.10;90.80
20672;DHT22;10495;50.922;4.760;2023-05-10T09:46:15;16.20;90.90
20672;DHT22;10495;50.922;4.760;2023-05-10T09:48:43;16.30;90.60
20672;DHT22;10495;50.922;4.760;2023-05-10T09:51:14;16.50;90.30
20672;DHT22;10495;50.922;4.760;2023-05-10T09:53:43;16.80;90.30
20672;DHT22;10495;50.922;4.760;2023-05-10T09:56:09;17.00;89.90
20672;DHT22;10495;50.922;4.760;2023-05-10T09:58:36;16.90;90.30
20672;DHT22;10495;50.922;4.760;2023-05-10T10:01:03;16.80;90.10
20672;DHT22;10495;50.922;4.760;2023-05-10T10:03:30;17.10;89.90
20672;DHT22;10495;50.922;4.760;2023-05-10T10:05:56;17.10;89.50
20672;DHT22;10495;50.922;4.760;2023-05-10T10:08:22;17.10;89.30
20672;DHT22;10495;50.922;4.760;2023-05-10T10:10:47;17.20;89.50
20672;DHT22;10495;50.922;4.760;2023-05-10T10:13:14;17.40;90.00
20672;DHT22;10495;50.922;4.760;2023-05-10T10:15:42;17.50;89.60
20672;DHT22;10495;50.922;4.760;2023-05-10T10:18:13;17.70;88.70
20672;DHT22;10495;50.922;4.760;2023-05-10T10:20:40;17.80;88.20
20672;DHT22;10495;50.922;4.760;2023-05-10T10:23:07;17.90;86.90
20672;DHT22;10495;50.922;4.760;2023-05-10T10:25:33;17.90;86.50
20672;DHT22;10495;50.922;4.760;2023-05-10T10:28:24;18.00;85.30
20672;DHT22;10495;50.922;4.760;2023-05-10T10:30:53;17.80;86.20
20672;DHT22;10495;50.922;4.760;2023-05-10T10:33:40;17.70;86.80
20672;DHT22;10495;50.922;4.760;2023-05-10T10:36:13;17.70;86.80
20672;DHT22;10495;50.922;4.760;2023-05-10T10:41:35;18.00;86.00
20672;DHT22;10495;50.922;4.760;2023-05-10T10:44:35;18.00;86.40
20672;DHT22;10495;50.922;4.760;2023-05-10T10:47:21;18.00;86.90
20672;DHT22;10495;50.922;4.760;2023-05-10T10:50:04;18.20;86.80
20672;DHT22;10495;50.922;4.760;2023-05-10T10:52:31;18.10;87.10
20672;DHT22;10495;50.922;4.760;2023-05-10T10:57:27;18.30;87.30
20672;DHT22;10495;50.922;4.760;2023-05-10T11:00:18;18.20;87.90
20672;DHT22;10495;50.922;4.760;2023-05-10T11:02:45;18.50;86.70
20672;DHT22;10495;50.922;4.760;2023-05-10T11:07:57;18.50;85.90
20672;DHT22;10495;50.922;4.760;2023-05-10T11:10:24;18.60;84.70
20672;DHT22;10495;50.922;4.760;2023-05-10T11:13:10;18.40;86.40
20672;DHT22;10495;50.922;4.760;2023-05-10T11:15:40;18.60;86.10
20672;DHT22;10495;50.922;4.760;2023-05-10T11:18:28;18.70;86.50
20672;DHT22;10495;50.922;4.760;2023-05-10T11:23:52;18.70;85.80
20672;DHT22;10495;50.922;4.760;2023-05-10T11:26:16;18.80;85.80
20672;DHT22;10495;50.922;4.760;2023-05-10T11:28:46;18.90;85.60
20672;DHT22;10495;50.922;4.760;2023-05-10T11:31:16;18.80;86.90
20672;DHT22;10495;50.922;4.760;2023-05-10T11:33:48;18.80;88.30
20672;DHT22;10495;50.922;4.760;2023-05-10T11:36:16;19.00;87.30
20672;DHT22;10495;50.922;4.760;2023-05-10T11:38:42;19.10;87.00
20672;DHT22;10495;50.922;4.760;2023-05-10T11:41:09;19.30;86.90
20672;DHT22;10495;50.922;4.760;2023-05-10T11:43:35;19.80;85.40
20672;DHT22;10495;50.922;4.760;2023-05-10T11:46:04;19.90;83.80
20672;DHT22;10495;50.922;4.760;2023-05-10T11:48:31;19.80;83.90
20672;DHT22;10495;50.922;4.760;2023-05-10T11:50:56;19.90;83.40
20672;DHT22;10495;50.922;4.760;2023-05-10T11:53:25;19.90;82.20
20672;DHT22;10495;50.922;4.760;2023-05-10T11:55:51;19.80;81.60
20672;DHT22;10495;50.922;4.760;2023-05-10T11:58:18;19.80;81.60
20672;DHT22;10495;50.922;4.760;2023-05-10T12:00:44;19.90;82.20
20672;DHT22;10495;50.922;4.760;2023-05-10T12:03:11;19.90;81.90
20672;DHT22;10495;50.922;4.760;2023-05-10T12:05:37;19.90;82.50
20672;DHT22;10495;50.922;4.760;2023-05-10T12:08:19;20.10;80.70
20672;DHT22;10495;50.922;4.760;2023-05-10T12:10:45;20.30;81.10
20672;DHT22;10495;50.922;4.760;2023-05-10T12:13:12;20.10;79.20
20672;DHT22;10495;50.922;4.760;2023-05-10T12:15:39;19.90;80.90
20672;DHT22;10495;50.922;4.760;2023-05-10T12:18:05;19.90;80.60
20672;DHT22;10495;50.922;4.760;2023-05-10T12:20:31;20.10;81.40
20672;DHT22;10495;50.922;4.760;2023-05-10T12:22:58;20.00;81.60
20672;DHT22;10495;50.922;4.760;2023-05-10T12:25:30;20.20;80.30
20672;DHT22;10495;50.922;4.760;2023-05-10T12:27:57;20.20;79.10
20672;DHT22;10495;50.922;4.760;2023-05-10T12:30:24;20.30;78.90
20672;DHT22;10495;50.922;4.760;2023-05-10T12:32:50;20.00;79.30
20672;DHT22;10495;50.922;4.760;2023-05-10T12:35:16;19.70;80.10
20672;DHT22;10495;50.922;4.760;2023-05-10T12:37:43;19.80;79.70
20672;DHT22;10495;50.922;4.760;2023-05-10T12:40:09;19.90;80.60
20672;DHT22;10495;50.922;4.760;2023-05-10T12:42:36;20.20;79.70
20672;DHT22;10495;50.922;4.760;2023-05-10T12:45:04;20.30;79.60
20672;DHT22;10495;50.922;4.760;2023-05-10T12:47:31;20.20;78.80
20672;DHT22;10495;50.922;4.760;2023-05-10T12:49:56;20.10;79.50
20672;DHT22;10495;50.922;4.760;2023-05-10T12:52:22;20.00;80.30
20672;DHT22;10495;50.922;4.760;2023-05-10T12:54:48;20.40;79.90
20672;DHT22;10495;50.922;4.760;2023-05-10T12:57:14;20.30;79.50
20672;DHT22;10495;50.922;4.760;2023-05-10T12:59:40;20.70;79.10
20672;DHT22;10495;50.922;4.760;2023-05-10T13:02:06;20.80;77.60
20672;DHT22;10495;50.922;4.760;2023-05-10T13:04:32;20.80;77.10
20672;DHT22;10495;50.922;4.760;2023-05-10T13:06:57;20.80;76.70
20672;DHT22;10495;50.922;4.760;2023-05-10T13:09:27;20.80;77.40
20672;DHT22;10495;50.922;4.760;2023-05-10T13:11:54;20.70;77.50
20672;DHT22;10495;50.922;4.760;2023-05-10T13:14:20;20.80;76.50
20672;DHT22;10495;50.922;4.760;2023-05-10T13:16:47;20.80;76.80
20672;DHT22;10495;50.922;4.760;2023-05-10T13:19:13;20.70;76.40
20672;DHT22;10495;50.922;4.760;2023-05-10T13:21:39;20.70;77.30
20672;DHT22;10495;50.922;4.760;2023-05-10T13:24:06;20.80;76.50
20672;DHT22;10495;50.922;4.760;2023-05-10T13:26:32;20.80;75.70
20672;DHT22;10495;50.922;4.760;2023-05-10T13:28:58;20.70;74.40
20672;DHT22;10495;50.922;4.760;2023-05-10T13:31:23;20.50;76.20
20672;DHT22;10495;50.922;4.760;2023-05-10T13:33:49;20.60;76.80
20672;DHT22;10495;50.922;4.760;2023-05-10T13:36:15;20.70;76.00
20672;DHT22;10495;50.922;4.760;2023-05-10T13:38:40;20.70;75.90
20672;DHT22;10495;50.922;4.760;2023-05-10T13:41:06;20.60;76.80
20672;DHT22;10495;50.922;4.760;2023-05-10T13:43:32;20.80;76.80
20672;DHT22;10495;50.922;4.760;2023-05-10T13:45:57;20.70;76.30
20672;DHT22;10495;50.922;4.760;2023-05-10T13:48:23;20.70;76.30
20672;DHT22;10495;50.922;4.760;2023-05-10T13:50:49;20.50;76.80
20672;DHT22;10495;50.922;4.760;2023-05-10T13:53:15;20.50;76.70
20672;DHT22;10495;50.922;4.760;2023-05-10T13:55:41;20.10;76.20
20672;DHT22;10495;50.922;4.760;2023-05-10T13:58:06;20.10;77.90
20672;DHT22;10495;50.922;4.760;2023-05-10T14:00:32;20.40;77.70
20672;DHT22;10495;50.922;4.760;2023-05-10T14:02:58;20.60;76.40
20672;DHT22;10495;50.922;4.760;2023-05-10T14:05:23;20.40;75.80
20672;DHT22;10495;50.922;4.760;2023-05-10T14:07:50;20.10;76.40
20672;DHT22;10495;50.922;4.760;2023-05-10T14:10:16;20.00;77.80
20672;DHT22;10495;50.922;4.760;2023-05-10T14:12:42;20.10;78.30
20672;DHT22;10495;50.922;4.760;2023-05-10T14:15:07;20.20;78.20
20672;DHT22;10495;50.922;4.760;2023-05-10T14:17:35;20.40;78.30
20672;DHT22;10495;50.922;4.760;2023-05-10T14:20:01;20.20;77.20
20672;DHT22;10495;50.922;4.760;2023-05-10T14:22:27;20.30;77.90
20672;DHT22;10495;50.922;4.760;2023-05-10T14:24:53;20.20;77.60
20672;DHT22;10495;50.922;4.760;2023-05-10T14:27:18;20.40;78.00
20672;DHT22;10495;50.922;4.760;2023-05-10T14:29:44;20.50;77.90
20672;DHT22;10495;50.922;4.760;2023-05-10T14:32:10;20.70;76.50
20672;DHT22;10495;50.922;4.760;2023-05-10T14:34:36;20.70;75.70
20672;DHT22;10495;50.922;4.760;2023-05-10T14:37:01;20.50;76.10
20672;DHT22;10495;50.922;4.760;2023-05-10T14:39:27;20.40;75.50
20672;DHT22;10495;50.922;4.760;2023-05-10T14:41:55;20.50;76.20
20672;DHT22;10495;50.922;4.760;2023-05-10T14:44:21;20.40;76.50
20672;DHT22;10495;50.922;4.760;2023-05-10T14:46:47;20.20;77.90
20672;DHT22;10495;50.922;4.760;2023-05-10T14:49:13;20.30;78.20
20672;DHT22;10495;50.922;4.760;2023-05-10T14:51:39;20.30;78.10
20672;DHT22;10495;50.922;4.760;2023-05-10T14:54:05;20.50;77.50
20672;DHT22;10495;50.922;4.760;2023-05-10T14:56:31;20.60;77.60
20672;DHT22;10495;50.922;4.760;2023-05-10T14:58:56;20.50;76.10
20672;DHT22;10495;50.922;4.760;2023-05-10T15:01:22;20.70;77.00
20672;DHT22;10495;50.922;4.760;2023-05-10T15:03:48;20.60;75.50
20672;DHT22;10495;50.922;4.760;2023-05-10T15:06:16;20.30;76.70
20672;DHT22;10495;50.922;4.760;2023-05-10T15:08:42;20.40;76.60
20672;DHT22;10495;50.922;4.760;2023-05-10T15:11:08;20.20;76.60
20672;DHT22;10495;50.922;4.760;2023-05-10T15:13:34;20.20;77.90
20672;DHT22;10495;50.922;4.760;2023-05-10T15:16:00;20.20;77.90
20672;DHT22;10495;50.922;4.760;2023-05-10T15:18:25;20.30;77.10
20672;DHT22;10495;50.922;4.760;2023-05-10T15:20:51;20.50;76.00
20672;DHT22;10495;50.922;4.760;2023-05-10T15:23:17;20.50;76.40
20672;DHT22;10495;50.922;4.760;2023-05-10T15:25:42;20.40;76.10
20672;DHT22;10495;50.922;4.760;2023-05-10T15:28:08;20.60;75.30
20672;DHT22;10495;50.922;4.760;2023-05-10T15:30:34;20.40;75.00
20672;DHT22;10495;50.922;4.760;2023-05-10T15:32:59;20.10;74.20
20672;DHT22;10495;50.922;4.760;2023-05-10T15:35:26;19.80;76.70
20672;DHT22;10495;50.922;4.760;2023-05-10T15:37:51;19.80;78.40
20672;DHT22;10495;50.922;4.760;2023-05-10T15:40:17;19.70;79.10
20672;DHT22;10495;50.922;4.760;2023-05-10T15:42:43;19.70;79.10
20672;DHT22;10495;50.922;4.760;2023-05-10T15:45:09;19.40;80.70
20672;DHT22;10495;50.922;4.760;2023-05-10T15:47:36;19.10;80.20
20672;DHT22;10495;50.922;4.760;2023-05-10T15:50:01;19.00;81.40
20672;DHT22;10495;50.922;4.760;2023-05-10T15:52:27;18.90;81.70
20672;DHT22;10495;50.922;4.760;2023-05-10T15:54:53;19.00;81.90
20672;DHT22;10495;50.922;4.760;2023-05-10T15:57:19;19.00;82.20
20672;DHT22;10495;50.922;4.760;2023-05-10T15:59:44;18.90;82.50
20672;DHT22;10495;50.922;4.760;2023-05-10T16:02:10;19.10;80.70